Eckelson, North Dakota
Current Conditions -  °F | °C
As of 10:35 PM on Saturday 24 Jan 2015 (Local Time) from KBAC Reporting Station
Light Snow Light Snow  
Wind Chill: 17°   Ceiling: 800
Heat Index: 25°   Visibility: 2.5mi
Dew Point: 25°   Wind: 7mph
Humidity: 100%   Direction: 10°N
Pressure: 29.8"   Gusts: NA
Location:  46.94°N, 98.33°W
Report Text: KBAC 250435Z AUTO 01006KT 2 1/2SM -SN BKN008 OVC013 M04/M04 A2980 RMK AO2 P0007
Loading
Personal Weather Stations






























Interactive Weather Map New forecast layout! Learn more

10-Day Weather Forecast

Advertisements
Track Severe Weather on mobile